createdAt,value
2022-09-07T00:01:49.758Z,21.20
2022-09-07T00:04:16.503Z,21.30
2022-09-07T00:06:43.240Z,21.20
2022-09-07T00:09:09.974Z,21.20
2022-09-07T00:11:36.675Z,21.20
2022-09-07T00:14:03.457Z,21.30
2022-09-07T00:16:31.121Z,21.30
2022-09-07T00:18:59.519Z,21.30
2022-09-07T00:21:26.598Z,21.40
2022-09-07T00:23:54.263Z,21.40
2022-09-07T00:26:30.582Z,21.80
2022-09-07T00:28:58.442Z,21.40
2022-09-07T00:31:25.395Z,21.60
2022-09-07T00:33:52.875Z,21.40
2022-09-07T00:36:20.161Z,21.40
2022-09-07T00:38:46.935Z,21.40
2022-09-07T00:41:14.599Z,21.40
2022-09-07T00:43:42.893Z,21.40
2022-09-07T00:46:23.392Z,21.40
2022-09-07T00:48:56.801Z,21.40
2022-09-07T00:51:31.901Z,21.40
2022-09-07T00:54:01.259Z,21.40
2022-09-07T00:56:29.757Z,21.40
2022-09-07T00:58:56.708Z,21.50
2022-09-07T01:01:24.164Z,21.40
2022-09-07T01:03:52.363Z,21.50
2022-09-07T01:06:20.337Z,21.40
2022-09-07T01:08:48.394Z,21.40
2022-09-07T01:11:15.329Z,21.40
2022-09-07T01:13:43.429Z,21.40
2022-09-07T01:16:33.997Z,21.40
2022-09-07T01:19:19.170Z,21.30
2022-09-07T01:22:06.092Z,21.40
2022-09-07T01:24:45.178Z,21.40
2022-09-07T01:27:32.431Z,21.40
2022-09-07T01:29:59.082Z,21.30
2022-09-07T01:32:37.138Z,21.30
2022-09-07T01:35:09.736Z,21.30
2022-09-07T01:37:42.872Z,21.30
2022-09-07T01:40:09.615Z,21.30
2022-09-07T01:43:02.569Z,21.40
2022-09-07T01:45:31.556Z,21.30
2022-09-07T01:48:00.289Z,21.80
2022-09-07T01:50:32.249Z,21.30
2022-09-07T01:53:02.518Z,21.30
2022-09-07T01:55:37.301Z,21.30
2022-09-07T01:58:19.007Z,21.30
2022-09-07T02:00:55.490Z,21.30
2022-09-07T02:03:27.769Z,21.20
2022-09-07T02:05:58.713Z,21.30
2022-09-07T02:08:25.361Z,21.20
2022-09-07T02:10:55.145Z,21.20
2022-09-07T02:13:42.069Z,21.30
2022-09-07T02:16:08.904Z,21.30
2022-09-07T02:18:41.754Z,21.20
2022-09-07T02:21:09.101Z,21.20
2022-09-07T02:23:42.091Z,21.20
2022-09-07T02:26:15.156Z,21.20
2022-09-07T02:28:42.053Z,21.20
2022-09-07T02:31:08.847Z,21.30
2022-09-07T02:33:35.613Z,21.20
2022-09-07T02:36:04.221Z,21.20
2022-09-07T02:38:32.046Z,21.20
2022-09-07T02:40:59.686Z,21.20
2022-09-07T02:43:27.755Z,21.20
2022-09-07T02:46:09.217Z,21.20
2022-09-07T02:48:45.202Z,21.20
2022-09-07T02:51:11.864Z,21.20
2022-09-07T02:53:47.615Z,21.20
2022-09-07T02:56:32.915Z,21.20
2022-09-07T02:59:07.574Z,21.20
2022-09-07T03:01:52.890Z,21.20
2022-09-07T03:04:36.625Z,21.20
2022-09-07T03:07:03.275Z,21.30
2022-09-07T03:09:32.488Z,21.30
2022-09-07T03:12:02.169Z,21.30
2022-09-07T03:14:32.955Z,20.20
2022-09-07T03:17:00.010Z,21.30
2022-09-07T03:19:27.116Z,21.30
2022-09-07T03:21:53.878Z,21.40
2022-09-07T03:24:20.562Z,21.30
2022-09-07T03:26:48.649Z,21.30
2022-09-07T03:29:15.435Z,21.30
2022-09-07T03:31:42.142Z,21.30
2022-09-07T03:34:08.889Z,21.30
2022-09-07T03:36:35.575Z,21.30
2022-09-07T03:39:02.708Z,21.30
2022-09-07T03:41:29.385Z,21.30
2022-09-07T03:43:56.068Z,21.30
2022-09-07T03:46:22.850Z,21.20
2022-09-07T03:48:49.699Z,21.30
2022-09-07T03:51:17.426Z,21.30
2022-09-07T03:53:45.407Z,21.30
2022-09-07T03:56:13.782Z,21.30
2022-09-07T03:58:40.450Z,21.30
2022-09-07T04:01:11.407Z,21.30
2022-09-07T04:03:38.222Z,21.30
2022-09-07T04:06:05.462Z,21.40
2022-09-07T04:08:33.194Z,21.20
2022-09-07T04:11:01.036Z,21.20
2022-09-07T04:13:28.278Z,21.20
2022-09-07T04:15:55.399Z,21.20
2022-09-07T04:18:22.239Z,21.20
2022-09-07T04:20:50.791Z,21.20
2022-09-07T04:23:20.566Z,21.20
2022-09-07T04:25:48.318Z,21.20
2022-09-07T04:28:15.654Z,21.20
2022-09-07T04:30:42.404Z,21.30
2022-09-07T04:33:11.465Z,21.20
2022-09-07T04:35:38.994Z,21.20
2022-09-07T04:38:06.454Z,21.10
2022-09-07T04:40:33.710Z,21.20
2022-09-07T04:43:00.433Z,21.20
2022-09-07T04:45:27.061Z,21.10
2022-09-07T04:47:53.714Z,21.20
2022-09-07T04:50:20.381Z,21.20
2022-09-07T04:52:47.007Z,21.20
2022-09-07T04:55:13.648Z,21.20
2022-09-07T04:57:40.374Z,21.20
2022-09-07T05:00:13.274Z,21.20
2022-09-07T05:02:40.002Z,21.20
2022-09-07T05:05:06.932Z,21.20
2022-09-07T05:07:33.629Z,21.20
2022-09-07T05:10:00.275Z,21.30
2022-09-07T05:12:27.066Z,21.30
2022-09-07T05:14:54.006Z,21.30
2022-09-07T05:17:20.748Z,21.30
2022-09-07T05:19:47.946Z,21.30
2022-09-07T05:22:14.622Z,21.30
2022-09-07T05:24:41.301Z,21.30
2022-09-07T05:27:08.004Z,21.30
2022-09-07T05:32:21.383Z,21.30
2022-09-07T05:34:50.877Z,21.50
2022-09-07T05:37:19.152Z,21.30
2022-09-07T05:39:45.883Z,21.30
2022-09-07T05:42:12.620Z,21.30
2022-09-07T05:47:09.237Z,21.30
2022-09-07T05:49:35.934Z,21.20
2022-09-07T05:52:02.675Z,21.20
2022-09-07T05:54:29.346Z,21.30
2022-09-07T05:56:56.014Z,21.30
2022-09-07T05:59:22.686Z,21.30
2022-09-07T06:01:49.426Z,21.30
2022-09-07T06:04:16.230Z,21.40
2022-09-07T06:06:47.852Z,21.30
2022-09-07T06:09:30.240Z,21.20
2022-09-07T06:11:57.315Z,21.20
2022-09-07T06:14:23.975Z,21.20
2022-09-07T06:16:50.777Z,21.20
2022-09-07T06:19:17.788Z,21.30
2022-09-07T06:21:44.440Z,21.30
2022-09-07T06:24:11.159Z,21.30
2022-09-07T06:26:37.806Z,21.20
2022-09-07T06:29:04.541Z,21.30
2022-09-07T06:31:31.504Z,21.20
2022-09-07T06:33:58.869Z,21.20
2022-09-07T06:36:29.597Z,21.20
2022-09-07T06:38:58.996Z,21.20
2022-09-07T06:44:14.141Z,21.20
2022-09-07T06:49:27.455Z,21.20
2022-09-07T06:51:54.679Z,21.10
2022-09-07T06:57:11.050Z,21.20
2022-09-07T06:59:37.970Z,21.10
2022-09-07T07:02:05.530Z,21.10
2022-09-07T07:04:37.714Z,21.10
2022-09-07T07:07:09.699Z,21.10
2022-09-07T07:09:36.378Z,21.20
2022-09-07T07:12:03.194Z,21.20
2022-09-07T07:14:33.709Z,21.20
2022-09-07T07:17:01.981Z,21.20
2022-09-07T07:19:28.671Z,21.20
2022-09-07T07:24:42.033Z,21.20
2022-09-07T07:27:08.726Z,21.10
2022-09-07T07:29:35.507Z,21.10
2022-09-07T07:32:02.314Z,20.20
2022-09-07T07:34:29.230Z,21.20
2022-09-07T07:36:56.074Z,21.20
2022-09-07T07:42:09.435Z,21.30
2022-09-07T07:44:36.086Z,21.30
2022-09-07T07:47:02.885Z,21.30
2022-09-07T07:49:29.586Z,21.30
2022-09-07T07:54:43.471Z,21.40
2022-09-07T07:57:10.411Z,21.40
2022-09-07T07:59:37.446Z,21.30
2022-09-07T08:02:05.827Z,21.40
2022-09-07T08:04:35.625Z,21.40
2022-09-07T08:07:09.186Z,21.40
2022-09-07T08:09:38.291Z,21.50
2022-09-07T08:12:05.082Z,21.40
2022-09-07T08:14:31.795Z,21.50
2022-09-07T08:16:58.414Z,21.50
2022-09-07T08:19:24.998Z,21.60
2022-09-07T08:21:51.657Z,21.50
2022-09-07T08:24:18.307Z,21.50
2022-09-07T08:26:44.898Z,21.50
2022-09-07T08:29:11.494Z,21.60
2022-09-07T08:31:38.190Z,21.50
2022-09-07T08:34:04.942Z,21.50
2022-09-07T08:36:31.981Z,21.50
2022-09-07T08:38:58.595Z,21.50
2022-09-07T08:41:34.794Z,21.50
2022-09-07T08:44:01.535Z,21.50
2022-09-07T08:46:47.203Z,21.60
2022-09-07T08:49:18.865Z,21.50
2022-09-07T08:51:46.430Z,21.50
2022-09-07T08:54:15.038Z,21.50
2022-09-07T08:59:41.989Z,21.50
2022-09-07T09:07:51.575Z,21.60
2022-09-07T09:10:33.507Z,21.70
2022-09-07T09:13:09.616Z,21.70
2022-09-07T09:15:54.966Z,21.80
2022-09-07T09:18:30.775Z,21.80
2022-09-07T09:20:58.373Z,21.80
2022-09-07T09:23:26.922Z,21.80
2022-09-07T09:25:56.651Z,21.70
2022-09-07T09:28:24.715Z,21.80
2022-09-07T09:30:53.239Z,21.80
2022-09-07T09:33:21.376Z,21.80
2022-09-07T09:35:52.027Z,21.80
2022-09-07T09:38:31.848Z,21.80
2022-09-07T09:41:01.148Z,21.70
2022-09-07T09:43:36.790Z,22.20
2022-09-07T09:46:19.093Z,21.70
2022-09-07T09:48:57.192Z,21.70
2022-09-07T09:54:14.881Z,21.70
2022-09-07T09:56:42.828Z,21.70
2022-09-07T10:05:29.678Z,21.70
2022-09-07T10:07:56.865Z,21.70
2022-09-07T10:10:23.676Z,21.10
2022-09-07T10:12:52.410Z,21.90
2022-09-07T10:15:26.493Z,21.70
2022-09-07T10:17:53.414Z,21.70
2022-09-07T10:20:29.748Z,22.00
2022-09-07T10:22:59.755Z,21.70
2022-09-07T10:25:40.341Z,21.70
2022-09-07T10:28:10.134Z,21.70
2022-09-07T10:30:55.693Z,21.70
2022-09-07T10:33:28.271Z,21.70
2022-09-07T10:36:13.375Z,21.70
2022-09-07T10:38:44.168Z,21.70
2022-09-07T10:41:11.195Z,21.70
2022-09-07T10:43:43.937Z,21.70
2022-09-07T10:49:15.959Z,21.70
2022-09-07T10:51:45.838Z,21.70
2022-09-07T10:54:31.892Z,21.70
2022-09-07T10:57:01.903Z,21.70
2022-09-07T11:02:37.996Z,21.70
2022-09-07T11:05:23.319Z,21.70
2022-09-07T11:07:56.095Z,21.60
2022-09-07T11:10:41.459Z,21.70
2022-09-07T11:13:10.605Z,21.70
2022-09-07T11:15:42.833Z,21.60
2022-09-07T11:18:19.785Z,21.60
2022-09-07T11:20:59.123Z,21.70
2022-09-07T11:23:40.954Z,21.70
2022-09-07T11:26:13.987Z,21.70
2022-09-07T11:28:44.774Z,21.60
2022-09-07T11:31:32.234Z,21.70
2022-09-07T11:37:13.479Z,21.60
2022-09-07T11:39:46.371Z,21.60
2022-09-07T11:42:45.212Z,21.70
2022-09-07T11:45:16.969Z,21.70
2022-09-07T11:47:48.750Z,21.70
2022-09-07T11:50:20.853Z,21.70
2022-09-07T11:52:53.546Z,21.70
2022-09-07T11:55:31.104Z,21.70
2022-09-07T11:58:16.134Z,21.60
2022-09-07T12:01:09.157Z,21.70
2022-09-07T12:03:43.203Z,21.70
2022-09-07T12:06:20.155Z,21.60
2022-09-07T12:08:55.978Z,21.70
2022-09-07T12:11:23.507Z,21.60
2022-09-07T12:13:56.202Z,21.60
2022-09-07T12:16:22.885Z,21.60
2022-09-07T12:18:52.312Z,21.60
2022-09-07T12:21:38.008Z,21.60
2022-09-07T12:24:04.996Z,21.60
2022-09-07T12:26:31.638Z,21.60
2022-09-07T12:28:58.313Z,21.60
2022-09-07T12:31:57.237Z,21.60
2022-09-07T12:34:31.376Z,20.30
2022-09-07T12:36:59.003Z,21.60
2022-09-07T12:39:25.835Z,21.60
2022-09-07T12:45:35.935Z,21.60
2022-09-07T12:48:05.163Z,21.60
2022-09-07T12:50:58.976Z,21.60
2022-09-07T12:53:33.137Z,21.60
2022-09-07T12:56:18.311Z,21.60
2022-09-07T12:58:57.630Z,21.60
2022-09-07T13:01:27.398Z,21.60
2022-09-07T13:04:13.001Z,21.60
2022-09-07T13:07:02.382Z,21.60
2022-09-07T13:09:39.117Z,21.60
2022-09-07T13:15:32.269Z,21.50
2022-09-07T13:17:59.218Z,21.60
2022-09-07T13:20:30.356Z,21.60
2022-09-07T13:23:07.938Z,21.60
2022-09-07T13:25:37.332Z,21.60
2022-09-07T13:28:06.079Z,21.60
2022-09-07T13:30:56.069Z,21.50
2022-09-07T13:33:26.064Z,21.50
2022-09-07T13:35:54.668Z,21.60
2022-09-07T13:38:21.498Z,21.50
2022-09-07T13:40:49.386Z,21.50
2022-09-07T13:43:17.903Z,21.60
2022-09-07T13:45:58.936Z,21.60
2022-09-07T13:48:37.855Z,21.60
2022-09-07T13:51:17.303Z,21.60
2022-09-07T13:53:50.041Z,21.60
2022-09-07T13:56:34.844Z,21.60
2022-09-07T13:59:10.948Z,21.60
2022-09-07T14:01:42.947Z,21.60
2022-09-07T14:04:21.982Z,21.60
2022-09-07T14:06:48.607Z,21.60
2022-09-07T14:09:17.363Z,21.50
2022-09-07T14:11:45.309Z,21.60
2022-09-07T14:14:29.432Z,21.60
2022-09-07T14:16:59.340Z,21.60
2022-09-07T14:19:35.884Z,21.50
2022-09-07T14:22:04.761Z,21.50
2022-09-07T14:24:36.177Z,21.60
2022-09-07T14:27:03.761Z,21.60
2022-09-07T14:29:31.751Z,21.50
2022-09-07T14:31:59.368Z,21.50
2022-09-07T14:34:27.959Z,21.50
2022-09-07T14:36:55.483Z,22.10
2022-09-07T14:39:22.680Z,21.50
2022-09-07T14:41:49.569Z,22.20
2022-09-07T14:44:27.316Z,21.50
2022-09-07T14:46:56.856Z,21.50
2022-09-07T14:49:24.093Z,21.50
2022-09-07T14:51:51.909Z,21.60
2022-09-07T14:54:20.603Z,21.60
2022-09-07T14:57:01.150Z,21.60
2022-09-07T14:59:38.777Z,21.60
2022-09-07T15:02:26.404Z,21.60
2022-09-07T15:05:16.300Z,21.70
2022-09-07T15:07:47.711Z,21.70
2022-09-07T15:10:15.554Z,21.70
2022-09-07T15:12:43.672Z,21.70
2022-09-07T15:15:30.570Z,21.60
2022-09-07T15:18:03.217Z,21.70
2022-09-07T15:20:37.239Z,21.70
2022-09-07T15:23:05.010Z,21.70
2022-09-07T15:25:32.618Z,21.70
2022-09-07T15:27:59.295Z,21.70
2022-09-07T15:30:27.426Z,21.70
2022-09-07T15:32:55.661Z,21.70
2022-09-07T15:35:23.596Z,21.70
2022-09-07T15:38:58.843Z,22.30
2022-09-07T15:40:56.205Z,21.70
2022-09-07T15:43:28.489Z,21.70
2022-09-07T15:45:56.323Z,21.70
2022-09-07T15:48:25.265Z,21.70
2022-09-07T15:50:55.436Z,21.80
2022-09-07T15:56:09.295Z,21.70
2022-09-07T15:58:35.957Z,21.70
2022-09-07T16:03:53.859Z,21.70
2022-09-07T16:06:21.830Z,21.70
2022-09-07T16:08:51.427Z,21.70
2022-09-07T16:11:23.899Z,21.70
2022-09-07T16:14:01.741Z,21.70
2022-09-07T16:17:26.507Z,21.70
2022-09-07T16:19:20.556Z,21.70
2022-09-07T16:21:47.769Z,21.70
2022-09-07T16:24:14.532Z,21.70
2022-09-07T16:26:41.205Z,21.70
2022-09-07T16:29:08.010Z,21.70
2022-09-07T16:31:35.067Z,21.70
2022-09-07T16:34:02.261Z,21.70
2022-09-07T16:36:29.049Z,21.60
2022-09-07T16:38:56.744Z,21.70
2022-09-07T16:41:27.227Z,21.70
2022-09-07T16:43:54.738Z,21.70
2022-09-07T16:46:22.950Z,21.60
2022-09-07T16:48:50.507Z,21.60
2022-09-07T16:51:19.707Z,21.70
2022-09-07T16:53:46.801Z,21.60
2022-09-07T16:56:16.649Z,21.60
2022-09-07T16:58:45.307Z,21.60
2022-09-07T17:01:13.103Z,21.70
2022-09-07T17:03:40.035Z,21.60
2022-09-07T17:06:08.057Z,21.60
2022-09-07T17:08:35.427Z,21.60
2022-09-07T17:11:03.373Z,21.60
2022-09-07T17:13:33.482Z,21.60
2022-09-07T17:16:10.678Z,21.60
2022-09-07T17:21:24.362Z,21.60
2022-09-07T17:23:55.687Z,21.60
2022-09-07T17:26:26.245Z,21.60
2022-09-07T17:28:55.004Z,21.60
2022-09-07T17:34:10.347Z,21.60
2022-09-07T17:36:36.989Z,21.60
2022-09-07T17:39:19.781Z,21.60
2022-09-07T17:41:47.764Z,21.60
2022-09-07T17:44:14.722Z,21.60
2022-09-07T17:46:41.435Z,21.60
2022-09-07T17:49:10.156Z,21.60
2022-09-07T17:51:37.089Z,21.50
2022-09-07T17:54:09.574Z,21.60
2022-09-07T17:56:37.069Z,21.60
2022-09-07T18:01:50.777Z,21.50
2022-09-07T18:04:17.592Z,21.60
2022-09-07T18:06:44.285Z,21.50
2022-09-07T18:09:11.130Z,21.60
2022-09-07T18:11:46.857Z,21.50
2022-09-07T18:14:14.709Z,21.50
2022-09-07T18:16:42.405Z,21.50
2022-09-07T18:19:11.053Z,21.50
2022-09-07T18:21:38.343Z,21.50
2022-09-07T18:24:07.485Z,21.50
2022-09-07T18:26:35.704Z,21.50
2022-09-07T18:29:03.986Z,21.70
2022-09-07T18:31:31.195Z,21.50
2022-09-07T18:33:57.887Z,21.70
2022-09-07T18:36:25.417Z,21.70
2022-09-07T18:38:52.185Z,21.80
2022-09-07T18:41:19.074Z,21.80
2022-09-07T18:43:48.061Z,21.80
2022-09-07T18:46:16.349Z,21.90
2022-09-07T18:48:43.345Z,21.90
2022-09-07T18:51:10.703Z,22.00
2022-09-07T18:53:37.630Z,21.90
2022-09-07T18:56:08.166Z,21.90
2022-09-07T18:58:34.895Z,21.90
2022-09-07T19:01:09.839Z,21.90
2022-09-07T19:03:37.118Z,21.90
2022-09-07T19:06:08.182Z,21.90
2022-09-07T19:08:36.016Z,21.80
2022-09-07T19:11:03.872Z,21.80
2022-09-07T19:13:30.610Z,21.80
2022-09-07T19:16:13.805Z,21.90
2022-09-07T19:18:45.206Z,21.80
2022-09-07T19:21:16.726Z,21.80
2022-09-07T19:23:43.607Z,21.80
2022-09-07T19:26:10.290Z,21.80
2022-09-07T19:28:36.925Z,21.80
2022-09-07T19:31:05.594Z,21.80
2022-09-07T19:33:32.734Z,21.80
2022-09-07T19:36:05.923Z,21.80
2022-09-07T19:38:33.069Z,21.70
2022-09-07T19:41:00.531Z,21.70
2022-09-07T19:43:30.484Z,21.70
2022-09-07T19:45:57.198Z,21.70
2022-09-07T19:48:23.858Z,21.70
2022-09-07T19:50:50.905Z,21.70
2022-09-07T19:53:18.047Z,21.70
2022-09-07T19:55:44.874Z,21.60
2022-09-07T19:58:15.018Z,21.70
2022-09-07T20:00:41.944Z,21.80
2022-09-07T20:03:10.518Z,21.70
2022-09-07T20:05:38.051Z,21.70
2022-09-07T20:08:04.826Z,21.70
2022-09-07T20:10:32.070Z,21.70
2022-09-07T20:12:58.753Z,21.70
2022-09-07T20:15:26.110Z,21.60
2022-09-07T20:17:53.916Z,21.70
2022-09-07T20:20:21.113Z,21.60
2022-09-07T20:22:47.906Z,21.60
2022-09-07T20:25:14.534Z,21.60
2022-09-07T20:27:41.443Z,21.60
2022-09-07T20:30:08.306Z,21.60
2022-09-07T20:32:34.914Z,21.60
2022-09-07T20:35:01.702Z,21.60
2022-09-07T20:37:28.364Z,21.60
2022-09-07T20:39:55.095Z,21.60
2022-09-07T20:42:21.759Z,21.60
2022-09-07T20:44:48.366Z,21.60
2022-09-07T20:47:15.029Z,21.60
2022-09-07T20:49:41.711Z,21.60
2022-09-07T20:52:08.318Z,21.60
2022-09-07T20:54:35.157Z,21.60
2022-09-07T20:57:04.015Z,21.50
2022-09-07T20:59:31.026Z,21.60
2022-09-07T21:01:57.719Z,21.50
2022-09-07T21:04:26.402Z,21.50
2022-09-07T21:06:53.247Z,21.50
2022-09-07T21:09:20.098Z,21.50
2022-09-07T21:11:49.688Z,21.70
2022-09-07T21:14:17.840Z,21.50
2022-09-07T21:16:44.582Z,21.50
2022-09-07T21:19:11.240Z,21.50
2022-09-07T21:21:39.485Z,21.50
2022-09-07T21:24:06.952Z,21.50
2022-09-07T21:26:33.642Z,21.50
2022-09-07T21:29:01.512Z,21.50
2022-09-07T21:31:29.171Z,21.50
2022-09-07T21:33:56.919Z,21.40
2022-09-07T21:36:23.993Z,21.40
2022-09-07T21:38:51.051Z,21.40
2022-09-07T21:41:19.237Z,21.50
2022-09-07T21:43:45.934Z,21.40
2022-09-07T21:46:13.929Z,21.40
2022-09-07T21:48:40.649Z,21.40
2022-09-07T21:51:07.306Z,21.40
2022-09-07T21:53:34.511Z,21.50
2022-09-07T21:56:02.471Z,21.40
2022-09-07T21:58:29.445Z,21.40
2022-09-07T22:00:57.031Z,21.40
2022-09-07T22:03:25.193Z,21.40
2022-09-07T22:05:51.882Z,21.50
2022-09-07T22:08:18.693Z,21.50
2022-09-07T22:10:45.638Z,21.50
2022-09-07T22:13:12.280Z,21.50
2022-09-07T22:15:39.869Z,21.60
2022-09-07T22:18:11.606Z,21.50
2022-09-07T22:20:38.318Z,21.60
2022-09-07T22:23:05.432Z,21.60
2022-09-07T22:25:32.558Z,21.60
2022-09-07T22:27:59.286Z,21.50
2022-09-07T22:30:26.031Z,21.60
2022-09-07T22:32:52.686Z,21.60
2022-09-07T22:35:20.051Z,21.60
2022-09-07T22:37:46.674Z,21.60
2022-09-07T22:40:14.727Z,21.60
2022-09-07T22:42:41.890Z,21.50
2022-09-07T22:45:08.833Z,21.60
2022-09-07T22:47:35.522Z,21.60
2022-09-07T22:50:02.117Z,21.50
2022-09-07T22:52:28.787Z,21.60
2022-09-07T22:54:55.394Z,21.60
2022-09-07T22:57:22.060Z,21.60
2022-09-07T22:59:48.709Z,21.60
2022-09-07T23:02:15.315Z,21.50
2022-09-07T23:04:42.029Z,21.50
2022-09-07T23:07:08.698Z,21.50
2022-09-07T23:09:35.561Z,21.50
2022-09-07T23:12:02.274Z,21.50
2022-09-07T23:14:29.029Z,21.50
2022-09-07T23:16:55.638Z,21.50
2022-09-07T23:19:22.311Z,21.50
2022-09-07T23:21:49.081Z,21.50
2022-09-07T23:24:16.961Z,21.50
2022-09-07T23:26:43.973Z,21.50
2022-09-07T23:29:11.777Z,21.50
2022-09-07T23:31:38.441Z,21.50
2022-09-07T23:34:05.111Z,21.50
2022-09-07T23:36:32.074Z,21.50
2022-09-07T23:38:59.212Z,21.50
2022-09-07T23:41:26.291Z,21.50
2022-09-07T23:43:53.737Z,21.50
2022-09-07T23:46:20.898Z,21.50
2022-09-07T23:48:48.070Z,21.50
2022-09-07T23:51:14.735Z,21.50
2022-09-07T23:53:41.482Z,21.40
2022-09-07T23:56:08.300Z,21.40
2022-09-07T23:58:34.936Z,21.50
